KPHL/PHL METAR and TAF weather

Enter ICAO airport designator
Station Type Date Time Source
KPHL METAR 2022/12/05 13:54 UTC NOAA

KPHL 051354Z 00000KT 10SM FEW300 02/M02 A3030 RMK AO2 SLP261 T00171017 $


Station Type Date Time Source
KPHL Decoded METAR 2022/12/05 13:54 UTC NOAA

PHILADELPHIA INTERNATIONAL AIRPT, PA, United States (KPHL) 39-52N 075-14W 18M
Dec 05, 2022 - 08:54 AM EST / 2022.12.05 1354 UTC
Wind: Calm:0
Visibility: 10 mile(s):0
Sky conditions: mostly clear
Temperature: 35.1 F (1.7 C)
Dew Point: 28.9 F (-1.7 C)
Relative Humidity: 78%
Pressure (altimeter): 30.3 in. Hg (1026 hPa)
ob: KPHL 051354Z 00000KT 10SM FEW300 02/M02 A3030 RMK AO2 SLP261 T00171017
cycle: 14

Station Type Date Time Source
KPHL TAF 2022/12/05 12:29 UTC NOAA

TAF KPHL 051121Z 0512/0618 VRB03KT P6SM SKC
FM051600 17004KT P6SM SCT250
FM060100 VRB03KT P6SM BKN200
FM060800 VRB03KT P6SM OVC100
FM061000 09004KT P6SM OVC050
FM061400 11004KT 6SM -SHRA BR OVC025

Example: see airport list